DURO2: Washita River Durwood, OK

                                SHEF ID:       DURO2     Washita River near Dickson, OK
STATION TYPE:
Regulating: Stage = 27.00, Flow = 32534

PRECIP PRECIP(A) STAGE RIV-FLOW BAT-LOAD
in in ft cfs volt
Ccp-Rev Ccp-Rev Ccp-Rev Ccp-Rev Ccp-Rev
(America/Chicago)
02/19 00:00 0.00 ---- 7.56 403 12.65
02/19 01:00 0.00 ---- 7.56 403 12.65
02/19 02:00 0.00 ---- 7.59 412 12.65
02/19 03:00 0.00 ---- 7.65 430 12.57
02/19 04:00 0.00 ---- 7.63 424 12.57
02/19 05:00 0.00 ---- 7.62 421 12.57
02/19 06:00 0.00 ---- 7.67 437 12.57
02/19 07:00 0.00 ---- 7.66 434 12.57
02/19 08:00 0.00 ---- 7.64 427 12.57
02/19 09:00 0.00 ---- 7.65 430 12.89
02/19 10:00 0.00 ---- 7.63 424 13.37
02/19 11:00 0.00 ---- 7.59 412 13.60
02/19 12:00 0.00 ---- 7.56 403 13.60
02/19 13:00 0.00 ---- 7.54 397 13.53
02/19 14:00 0.00 ---- 7.51 388 13.29
02/19 15:00 0.00 ---- 7.52 391 13.21
02/19 16:00 0.00 ---- 7.53 394 13.21
02/19 17:00 0.00 ---- 7.57 406 13.21
02/19 18:00 0.00 ---- 7.58 409 12.97
02/19 19:00 0.00 ---- 7.64 427 12.81
02/19 20:00 0.00 ---- 7.59 412 12.73
02/19 21:00 0.00 ---- 7.60 415 12.73
02/19 22:00 0.00 ---- 7.54 397 12.65
02/19 23:00 0.00 ---- 7.58 409 12.65
Data processed at Fri 20Feb2026 05:36 GMT

NOTICE: If you are parsing this page

Please convert to using our Data API. Starting early 2026 we will be migrating to: https://water.usace.army.mil with modern pages rendered in JavaScript. When this migration completes you will no longer be able to scrape this page! CWMSDataAPI (CDA)

Timeseries IDs (TSIDs)

TSIDs used from left to right in the data table
DICK.Precip-Inc.Total.1Hour.1Hour.Ccp-Rev
DICK.Precip-Inc Alt.Total.1Hour.1Hour.Ccp-Rev
DICK.Stage.Inst.1Hour.0.Ccp-Rev
DICK.Flow.Inst.1Hour.0.Ccp-Rev
DICK.Volt-Battery Load.Inst.1Hour.0.Ccp-Rev

                            

All information presented herein is the property of the government of the United States of America and may be revised or deleted at any time without prior notice. Dissemination of this information without the expressed written consent of the Public Affairs Office, Tulsa District U.S. Army Corps of Engineers is strictly prohibited. These data are gathered electronically and, as presented, have NOT undergone any form of quality control. These data are NOT guaranteed to be valid or correct.